sensor_id;sensor_type;location;lat;lon;timestamp;pressure;altitude;pressure_sealevel;temperature;humidity
55079;BME280;55187;49.496;6.010;2023-02-03T00:01:19;98732.97;;;3.76;100.00
55079;BME280;55187;49.496;6.010;2023-02-03T00:03:46;98746.06;;;3.76;100.00
55079;BME280;55187;49.496;6.010;2023-02-03T00:06:12;98735.81;;;3.73;100.00
55079;BME280;55187;49.496;6.010;2023-02-03T00:08:39;98744.00;;;3.69;100.00
55079;BME280;55187;49.496;6.010;2023-02-03T00:11:06;98745.56;;;3.71;100.00
55079;BME280;55187;49.496;6.010;2023-02-03T00:13:33;98737.22;;;3.66;100.00
55079;BME280;55187;49.496;6.010;2023-02-03T00:16:00;98731.66;;;3.71;100.00
55079;BME280;55187;49.496;6.010;2023-02-03T00:18:32;98734.03;;;3.74;100.00
55079;BME280;55187;49.496;6.010;2023-02-03T00:20:58;98735.09;;;3.71;100.00
55079;BME280;55187;49.496;6.010;2023-02-03T00:23:25;98744.59;;;3.72;100.00
55079;BME280;55187;49.496;6.010;2023-02-03T00:25:55;98735.09;;;3.71;100.00
55079;BME280;55187;49.496;6.010;2023-02-03T00:28:21;98727.34;;;3.70;100.00
55079;BME280;55187;49.496;6.010;2023-02-03T00:30:48;98730.22;;;3.67;100.00
55079;BME280;55187;49.496;6.010;2023-02-03T00:33:14;98741.25;;;3.70;100.00
55079;BME280;55187;49.496;6.010;2023-02-03T00:35:41;98744.50;;;3.74;100.00
55079;BME280;55187;49.496;6.010;2023-02-03T00:38:07;98744.75;;;3.71;100.00
55079;BME280;55187;49.496;6.010;2023-02-03T00:40:34;98740.34;;;3.71;100.00
55079;BME280;55187;49.496;6.010;2023-02-03T00:43:01;98743.53;;;3.75;100.00
55079;BME280;55187;49.496;6.010;2023-02-03T00:45:27;98742.84;;;3.73;100.00
55079;BME280;55187;49.496;6.010;2023-02-03T00:47:54;98747.94;;;3.74;100.00
55079;BME280;55187;49.496;6.010;2023-02-03T00:50:20;98742.13;;;3.71;100.00
55079;BME280;55187;49.496;6.010;2023-02-03T00:52:46;98727.00;;;3.74;100.00
55079;BME280;55187;49.496;6.010;2023-02-03T00:55:13;98726.28;;;3.72;100.00
55079;BME280;55187;49.496;6.010;2023-02-03T00:57:39;98726.91;;;3.76;100.00
55079;BME280;55187;49.496;6.010;2023-02-03T01:00:06;98728.56;;;3.77;100.00
55079;BME280;55187;49.496;6.010;2023-02-03T01:02:35;98717.25;;;3.76;100.00
55079;BME280;55187;49.496;6.010;2023-02-03T01:05:02;98716.16;;;3.68;100.00
55079;BME280;55187;49.496;6.010;2023-02-03T01:07:31;98708.81;;;3.73;100.00
55079;BME280;55187;49.496;6.010;2023-02-03T01:09:58;98703.78;;;3.70;100.00
55079;BME280;55187;49.496;6.010;2023-02-03T01:12:24;98703.31;;;3.65;100.00
55079;BME280;55187;49.496;6.010;2023-02-03T01:14:51;98706.66;;;3.67;100.00
55079;BME280;55187;49.496;6.010;2023-02-03T01:17:17;98712.13;;;3.64;100.00
55079;BME280;55187;49.496;6.010;2023-02-03T01:19:44;98718.91;;;3.66;100.00
55079;BME280;55187;49.496;6.010;2023-02-03T01:22:10;98707.56;;;3.66;100.00
55079;BME280;55187;49.496;6.010;2023-02-03T01:24:37;98706.31;;;3.71;100.00
55079;BME280;55187;49.496;6.010;2023-02-03T01:27:04;98701.06;;;3.71;100.00
55079;BME280;55187;49.496;6.010;2023-02-03T01:29:31;98680.22;;;3.70;100.00
55079;BME280;55187;49.496;6.010;2023-02-03T01:31:57;98673.56;;;3.66;100.00
55079;BME280;55187;49.496;6.010;2023-02-03T01:34:24;98652.41;;;3.69;100.00
55079;BME280;55187;49.496;6.010;2023-02-03T01:36:50;98639.88;;;3.72;100.00
55079;BME280;55187;49.496;6.010;2023-02-03T01:39:17;98627.03;;;3.69;100.00
55079;BME280;55187;49.496;6.010;2023-02-03T01:41:45;98641.78;;;3.70;100.00
55079;BME280;55187;49.496;6.010;2023-02-03T01:47:01;98637.03;;;3.64;100.00
55079;BME280;55187;49.496;6.010;2023-02-03T01:49:33;98637.75;;;3.66;100.00
55079;BME280;55187;49.496;6.010;2023-02-03T01:52:02;98640.75;;;3.73;100.00
55079;BME280;55187;49.496;6.010;2023-02-03T01:54:31;98643.38;;;3.73;100.00
55079;BME280;55187;49.496;6.010;2023-02-03T01:57:16;98630.38;;;3.71;100.00
55079;BME280;55187;49.496;6.010;2023-02-03T01:59:44;98634.78;;;3.71;100.00
55079;BME280;55187;49.496;6.010;2023-02-03T02:02:11;98643.34;;;3.62;100.00
55079;BME280;55187;49.496;6.010;2023-02-03T02:04:45;98649.28;;;3.75;100.00
55079;BME280;55187;49.496;6.010;2023-02-03T02:07:15;98658.09;;;3.74;100.00
55079;BME280;55187;49.496;6.010;2023-02-03T02:09:43;98670.84;;;3.78;100.00
55079;BME280;55187;49.496;6.010;2023-02-03T02:12:10;98668.59;;;3.74;100.00
55079;BME280;55187;49.496;6.010;2023-02-03T02:14:38;98652.63;;;3.77;100.00
55079;BME280;55187;49.496;6.010;2023-02-03T02:31:44;98653.22;;;3.69;100.00
55079;BME280;55187;49.496;6.010;2023-02-03T02:37:05;98648.59;;;3.73;100.00
55079;BME280;55187;49.496;6.010;2023-02-03T02:39:42;98646.91;;;3.72;100.00
55079;BME280;55187;49.496;6.010;2023-02-03T02:42:35;98655.50;;;3.74;100.00
55079;BME280;55187;49.496;6.010;2023-02-03T02:45:14;98664.41;;;3.71;100.00
55079;BME280;55187;49.496;6.010;2023-02-03T02:47:44;98659.91;;;3.73;100.00
55079;BME280;55187;49.496;6.010;2023-02-03T02:50:17;98660.00;;;3.72;100.00
55079;BME280;55187;49.496;6.010;2023-02-03T02:52:47;98671.91;;;3.76;100.00
55079;BME280;55187;49.496;6.010;2023-02-03T02:55:22;98669.41;;;3.74;100.00
55079;BME280;55187;49.496;6.010;2023-02-03T02:58:01;98688.56;;;3.75;100.00
55079;BME280;55187;49.496;6.010;2023-02-03T03:00:30;98696.31;;;3.76;100.00
55079;BME280;55187;49.496;6.010;2023-02-03T03:02:57;98701.31;;;3.79;100.00
55079;BME280;55187;49.496;6.010;2023-02-03T03:05:32;98697.75;;;3.81;100.00
55079;BME280;55187;49.496;6.010;2023-02-03T03:08:00;98690.63;;;3.83;100.00
55079;BME280;55187;49.496;6.010;2023-02-03T03:10:31;98677.38;;;3.84;100.00
55079;BME280;55187;49.496;6.010;2023-02-03T03:13:03;98674.75;;;3.84;100.00
55079;BME280;55187;49.496;6.010;2023-02-03T03:15:31;98682.63;;;3.84;100.00
55079;BME280;55187;49.496;6.010;2023-02-03T03:18:10;98675.84;;;3.82;100.00
55079;BME280;55187;49.496;6.010;2023-02-03T03:20:40;98676.81;;;3.81;100.00
55079;BME280;55187;49.496;6.010;2023-02-03T03:23:21;98683.09;;;3.78;100.00
55079;BME280;55187;49.496;6.010;2023-02-03T03:25:53;98677.72;;;3.79;100.00
55079;BME280;55187;49.496;6.010;2023-02-03T03:28:34;98677.72;;;3.79;100.00
55079;BME280;55187;49.496;6.010;2023-02-03T03:31:03;98681.78;;;3.84;100.00
55079;BME280;55187;49.496;6.010;2023-02-03T03:33:29;98678.25;;;3.85;100.00
55079;BME280;55187;49.496;6.010;2023-02-03T03:36:27;98671.22;;;3.85;100.00
55079;BME280;55187;49.496;6.010;2023-02-03T03:39:11;98684.03;;;3.77;100.00
55079;BME280;55187;49.496;6.010;2023-02-03T03:41:54;98669.53;;;3.84;100.00
55079;BME280;55187;49.496;6.010;2023-02-03T03:44:26;98670.50;;;3.83;100.00
55079;BME280;55187;49.496;6.010;2023-02-03T03:47:06;98667.78;;;3.85;100.00
55079;BME280;55187;49.496;6.010;2023-02-03T03:49:35;98656.56;;;3.83;100.00
55079;BME280;55187;49.496;6.010;2023-02-03T03:52:07;98662.16;;;3.78;100.00
55079;BME280;55187;49.496;6.010;2023-02-03T03:54:36;98655.38;;;3.75;100.00
55079;BME280;55187;49.496;6.010;2023-02-03T03:57:34;98665.50;;;3.80;100.00
55079;BME280;55187;49.496;6.010;2023-02-03T04:00:04;98657.75;;;3.67;100.00
55079;BME280;55187;49.496;6.010;2023-02-03T04:02:38;98652.88;;;3.74;100.00
55079;BME280;55187;49.496;6.010;2023-02-03T04:05:07;98649.19;;;3.76;100.00
55079;BME280;55187;49.496;6.010;2023-02-03T04:07:43;98639.69;;;3.75;100.00
55079;BME280;55187;49.496;6.010;2023-02-03T04:12:52;98646.91;;;3.72;100.00
55079;BME280;55187;49.496;6.010;2023-02-03T04:15:18;98650.00;;;3.77;100.00
55079;BME280;55187;49.496;6.010;2023-02-03T04:17:45;98653.25;;;3.81;100.00
55079;BME280;55187;49.496;6.010;2023-02-03T04:20:11;98656.78;;;3.79;100.00
55079;BME280;55187;49.496;6.010;2023-02-03T04:22:38;98660.25;;;3.80;100.00
55079;BME280;55187;49.496;6.010;2023-02-03T04:25:05;98658.59;;;3.79;100.00
55079;BME280;55187;49.496;6.010;2023-02-03T04:27:31;98657.41;;;3.83;100.00
55079;BME280;55187;49.496;6.010;2023-02-03T04:29:58;98663.47;;;3.84;100.00
55079;BME280;55187;49.496;6.010;2023-02-03T04:32:24;98666.94;;;3.73;100.00
55079;BME280;55187;49.496;6.010;2023-02-03T04:34:51;98665.13;;;3.73;100.00
55079;BME280;55187;49.496;6.010;2023-02-03T04:37:17;98667.50;;;3.76;100.00
55079;BME280;55187;49.496;6.010;2023-02-03T04:39:43;98670.13;;;3.76;100.00
55079;BME280;55187;49.496;6.010;2023-02-03T04:42:10;98694.88;;;3.72;100.00
55079;BME280;55187;49.496;6.010;2023-02-03T04:44:36;98693.22;;;3.83;100.00
55079;BME280;55187;49.496;6.010;2023-02-03T04:47:02;98696.69;;;3.83;100.00
55079;BME280;55187;49.496;6.010;2023-02-03T04:49:29;98700.09;;;3.72;100.00
55079;BME280;55187;49.496;6.010;2023-02-03T04:51:56;98702.38;;;3.77;100.00
55079;BME280;55187;49.496;6.010;2023-02-03T04:54:22;98703.91;;;3.79;100.00
55079;BME280;55187;49.496;6.010;2023-02-03T04:56:49;98712.63;;;3.80;100.00
55079;BME280;55187;49.496;6.010;2023-02-03T04:59:15;98697.84;;;3.79;100.00
55079;BME280;55187;49.496;6.010;2023-02-03T05:01:42;98693.59;;;3.78;100.00
55079;BME280;55187;49.496;6.010;2023-02-03T05:04:08;98695.72;;;3.73;100.00
55079;BME280;55187;49.496;6.010;2023-02-03T05:06:34;98703.44;;;3.74;100.00
55079;BME280;55187;49.496;6.010;2023-02-03T05:09:01;98699.50;;;3.69;100.00
55079;BME280;55187;49.496;6.010;2023-02-03T05:11:27;98698.44;;;3.71;100.00
55079;BME280;55187;49.496;6.010;2023-02-03T05:13:54;98707.03;;;3.73;100.00
55079;BME280;55187;49.496;6.010;2023-02-03T05:16:20;98690.25;;;3.76;100.00
55079;BME280;55187;49.496;6.010;2023-02-03T05:18:47;98691.06;;;3.76;100.00
55079;BME280;55187;49.496;6.010;2023-02-03T05:21:13;98692.03;;;3.75;100.00
55079;BME280;55187;49.496;6.010;2023-02-03T05:23:40;98675.38;;;3.76;100.00
55079;BME280;55187;49.496;6.010;2023-02-03T05:26:07;98665.84;;;3.75;100.00
55079;BME280;55187;49.496;6.010;2023-02-03T05:28:33;98667.84;;;3.72;100.00
55079;BME280;55187;49.496;6.010;2023-02-03T05:31:01;98679.88;;;3.74;100.00
55079;BME280;55187;49.496;6.010;2023-02-03T05:33:28;98669.31;;;3.76;100.00
55079;BME280;55187;49.496;6.010;2023-02-03T05:35:55;98682.63;;;3.73;100.00
55079;BME280;55187;49.496;6.010;2023-02-03T05:38:22;98694.66;;;3.75;100.00
55079;BME280;55187;49.496;6.010;2023-02-03T05:40:50;98691.34;;;3.96;100.00
55079;BME280;55187;49.496;6.010;2023-02-03T05:43:36;98693.34;;;3.92;100.00
55079;BME280;55187;49.496;6.010;2023-02-03T05:46:04;98679.31;;;3.93;100.00
55079;BME280;55187;49.496;6.010;2023-02-03T05:48:31;98680.88;;;4.07;100.00
55079;BME280;55187;49.496;6.010;2023-02-03T05:50:59;98665.03;;;4.20;100.00
55079;BME280;55187;49.496;6.010;2023-02-03T05:53:26;98662.53;;;3.96;100.00
55079;BME280;55187;49.496;6.010;2023-02-03T05:55:53;98652.91;;;3.96;100.00
55079;BME280;55187;49.496;6.010;2023-02-03T05:58:20;98659.91;;;4.18;100.00
55079;BME280;55187;49.496;6.010;2023-02-03T06:00:46;98673.25;;;4.38;100.00
55079;BME280;55187;49.496;6.010;2023-02-03T06:03:13;98686.69;;;4.11;100.00
55079;BME280;55187;49.496;6.010;2023-02-03T06:05:39;98682.06;;;4.14;100.00
55079;BME280;55187;49.496;6.010;2023-02-03T06:08:07;98668.84;;;4.16;100.00
55079;BME280;55187;49.496;6.010;2023-02-03T06:10:33;98669.81;;;4.15;100.00
55079;BME280;55187;49.496;6.010;2023-02-03T06:13:13;98652.63;;;3.88;100.00
55079;BME280;55187;49.496;6.010;2023-02-03T06:15:41;98644.22;;;4.07;100.00
55079;BME280;55187;49.496;6.010;2023-02-03T06:18:07;98647.78;;;4.06;100.00
55079;BME280;55187;49.496;6.010;2023-02-03T06:20:34;98645.75;;;3.98;100.00
55079;BME280;55187;49.496;6.010;2023-02-03T06:23:00;98670.03;;;4.01;100.00
55079;BME280;55187;49.496;6.010;2023-02-03T06:25:27;98660.84;;;3.95;100.00
55079;BME280;55187;49.496;6.010;2023-02-03T06:27:54;98655.25;;;3.99;100.00
55079;BME280;55187;49.496;6.010;2023-02-03T06:30:21;98655.63;;;3.95;100.00
55079;BME280;55187;49.496;6.010;2023-02-03T06:32:48;98650.28;;;3.96;100.00
55079;BME280;55187;49.496;6.010;2023-02-03T06:35:16;98651.56;;;3.91;100.00
55079;BME280;55187;49.496;6.010;2023-02-03T06:37:43;98661.69;;;3.95;100.00
55079;BME280;55187;49.496;6.010;2023-02-03T06:40:10;98654.78;;;3.94;100.00
55079;BME280;55187;49.496;6.010;2023-02-03T06:42:37;98653.16;;;3.93;100.00
55079;BME280;55187;49.496;6.010;2023-02-03T06:45:04;98656.34;;;3.86;100.00
55079;BME280;55187;49.496;6.010;2023-02-03T06:47:30;98666.56;;;3.89;100.00
55079;BME280;55187;49.496;6.010;2023-02-03T06:49:57;98658.84;;;3.87;100.00
55079;BME280;55187;49.496;6.010;2023-02-03T06:52:23;98656.94;;;3.89;100.00
55079;BME280;55187;49.496;6.010;2023-02-03T06:54:50;98655.16;;;3.90;100.00
55079;BME280;55187;49.496;6.010;2023-02-03T06:57:16;98658.00;;;3.87;100.00
55079;BME280;55187;49.496;6.010;2023-02-03T06:59:42;98663.34;;;3.85;100.00
55079;BME280;55187;49.496;6.010;2023-02-03T07:02:10;98669.41;;;3.86;100.00
55079;BME280;55187;49.496;6.010;2023-02-03T07:04:37;98666.81;;;3.86;100.00
55079;BME280;55187;49.496;6.010;2023-02-03T07:07:04;98673.84;;;3.85;100.00
55079;BME280;55187;49.496;6.010;2023-02-03T07:09:31;98688.38;;;3.89;100.00
55079;BME280;55187;49.496;6.010;2023-02-03T07:11:57;98678.47;;;3.82;100.00
55079;BME280;55187;49.496;6.010;2023-02-03T07:14:23;98655.25;;;3.88;100.00
55079;BME280;55187;49.496;6.010;2023-02-03T07:16:50;98653.81;;;3.84;100.00
55079;BME280;55187;49.496;6.010;2023-02-03T07:19:16;98663.81;;;3.79;100.00
55079;BME280;55187;49.496;6.010;2023-02-03T07:21:43;98696.78;;;3.82;100.00
55079;BME280;55187;49.496;6.010;2023-02-03T07:24:09;98717.38;;;3.86;100.00
55079;BME280;55187;49.496;6.010;2023-02-03T07:26:35;98705.25;;;3.85;100.00
55079;BME280;55187;49.496;6.010;2023-02-03T07:29:04;98689.66;;;3.84;100.00
55079;BME280;55187;49.496;6.010;2023-02-03T07:31:31;98708.31;;;3.79;100.00
55079;BME280;55187;49.496;6.010;2023-02-03T07:33:57;98701.31;;;3.79;100.00
55079;BME280;55187;49.496;6.010;2023-02-03T07:36:24;98704.06;;;3.78;100.00
55079;BME280;55187;49.496;6.010;2023-02-03T07:38:54;98712.50;;;3.82;100.00
55079;BME280;55187;49.496;6.010;2023-02-03T07:41:21;98704.28;;;3.75;100.00
55079;BME280;55187;49.496;6.010;2023-02-03T07:43:47;98710.94;;;3.79;100.00
55079;BME280;55187;49.496;6.010;2023-02-03T07:46:14;98714.38;;;3.79;100.00
55079;BME280;55187;49.496;6.010;2023-02-03T07:48:40;98728.19;;;3.82;100.00
55079;BME280;55187;49.496;6.010;2023-02-03T07:51:07;98738.69;;;3.82;100.00
55079;BME280;55187;49.496;6.010;2023-02-03T07:53:34;98742.84;;;3.84;100.00
55079;BME280;55187;49.496;6.010;2023-02-03T07:56:01;98752.28;;;3.87;100.00
55079;BME280;55187;49.496;6.010;2023-02-03T07:58:28;98736.22;;;3.91;100.00
55079;BME280;55187;49.496;6.010;2023-02-03T08:00:55;98734.53;;;3.90;100.00
55079;BME280;55187;49.496;6.010;2023-02-03T08:03:22;98737.78;;;3.94;100.00
55079;BME280;55187;49.496;6.010;2023-02-03T08:05:49;98744.66;;;3.95;100.00
55079;BME280;55187;49.496;6.010;2023-02-03T08:08:16;98743.84;;;3.94;100.00
55079;BME280;55187;49.496;6.010;2023-02-03T08:10:42;98735.72;;;3.97;100.00
55079;BME280;55187;49.496;6.010;2023-02-03T08:13:09;98732.03;;;4.00;100.00
55079;BME280;55187;49.496;6.010;2023-02-03T08:15:35;98725.75;;;4.03;100.00
55079;BME280;55187;49.496;6.010;2023-02-03T08:18:01;98743.84;;;4.06;100.00
55079;BME280;55187;49.496;6.010;2023-02-03T08:20:28;98731.34;;;4.09;100.00
55079;BME280;55187;49.496;6.010;2023-02-03T08:22:54;98740.28;;;4.07;100.00
55079;BME280;55187;49.496;6.010;2023-02-03T08:25:20;98735.88;;;4.07;100.00
55079;BME280;55187;49.496;6.010;2023-02-03T08:27:47;98738.72;;;4.04;100.00
55079;BME280;55187;49.496;6.010;2023-02-03T08:30:13;98742.75;;;3.97;100.00
55079;BME280;55187;49.496;6.010;2023-02-03T08:32:40;98764.47;;;4.10;100.00
55079;BME280;55187;49.496;6.010;2023-02-03T08:35:07;98772.78;;;4.04;100.00
55079;BME280;55187;49.496;6.010;2023-02-03T08:37:33;98773.84;;;4.02;100.00
55079;BME280;55187;49.496;6.010;2023-02-03T08:40:00;98781.97;;;4.10;100.00
55079;BME280;55187;49.496;6.010;2023-02-03T08:42:31;98762.78;;;4.09;100.00
55079;BME280;55187;49.496;6.010;2023-02-03T08:44:58;98760.63;;;4.03;100.00
55079;BME280;55187;49.496;6.010;2023-02-03T08:47:24;98760.41;;;4.06;100.00
55079;BME280;55187;49.496;6.010;2023-02-03T08:49:51;98750.28;;;4.02;100.00
55079;BME280;55187;49.496;6.010;2023-02-03T08:52:18;98753.88;;;4.12;100.00
55079;BME280;55187;49.496;6.010;2023-02-03T08:54:45;98748.84;;;4.09;100.00
55079;BME280;55187;49.496;6.010;2023-02-03T08:57:11;98746.56;;;4.04;100.00
55079;BME280;55187;49.496;6.010;2023-02-03T08:59:39;98741.00;;;4.09;100.00
55079;BME280;55187;49.496;6.010;2023-02-03T09:02:08;98737.28;;;4.11;100.00
55079;BME280;55187;49.496;6.010;2023-02-03T09:04:36;98734.44;;;4.37;100.00
55079;BME280;55187;49.496;6.010;2023-02-03T09:07:02;98708.75;;;4.31;100.00
55079;BME280;55187;49.496;6.010;2023-02-03T09:09:30;98710.50;;;4.41;100.00
55079;BME280;55187;49.496;6.010;2023-02-03T09:11:56;98726.00;;;4.67;100.00
55079;BME280;55187;49.496;6.010;2023-02-03T09:14:31;98724.41;;;4.76;100.00
55079;BME280;55187;49.496;6.010;2023-02-03T09:17:02;98730.34;;;4.89;100.00
55079;BME280;55187;49.496;6.010;2023-02-03T09:19:29;98732.16;;;4.77;100.00
55079;BME280;55187;49.496;6.010;2023-02-03T09:21:56;98729.34;;;4.58;100.00
55079;BME280;55187;49.496;6.010;2023-02-03T09:24:23;98728.84;;;4.53;100.00
55079;BME280;55187;49.496;6.010;2023-02-03T09:26:50;98740.06;;;4.55;100.00
55079;BME280;55187;49.496;6.010;2023-02-03T09:29:16;98743.84;;;4.62;100.00
55079;BME280;55187;49.496;6.010;2023-02-03T09:31:43;98754.22;;;4.41;100.00
55079;BME280;55187;49.496;6.010;2023-02-03T09:34:11;98785.09;;;4.49;100.00
55079;BME280;55187;49.496;6.010;2023-02-03T09:36:38;98808.44;;;4.29;100.00
55079;BME280;55187;49.496;6.010;2023-02-03T09:39:04;98811.16;;;4.39;100.00
55079;BME280;55187;49.496;6.010;2023-02-03T09:47:29;98773.53;;;4.40;100.00
55079;BME280;55187;49.496;6.010;2023-02-03T09:50:00;98785.22;;;4.47;100.00
55079;BME280;55187;49.496;6.010;2023-02-03T09:52:31;98789.50;;;4.48;100.00
55079;BME280;55187;49.496;6.010;2023-02-03T09:57:36;98759.84;;;4.48;100.00
55079;BME280;55187;49.496;6.010;2023-02-03T10:00:18;98758.03;;;4.48;100.00
55079;BME280;55187;49.496;6.010;2023-02-03T10:04:53;98765.19;;;4.57;100.00
55079;BME280;55187;49.496;6.010;2023-02-03T10:16:24;98778.16;;;4.93;100.00
55079;BME280;55187;49.496;6.010;2023-02-03T10:18:57;98775.03;;;4.99;100.00
55079;BME280;55187;49.496;6.010;2023-02-03T10:21:40;98781.63;;;4.93;100.00
55079;BME280;55187;49.496;6.010;2023-02-03T10:24:36;98789.13;;;4.75;100.00
55079;BME280;55187;49.496;6.010;2023-02-03T10:27:03;98791.03;;;4.73;100.00
55079;BME280;55187;49.496;6.010;2023-02-03T10:29:41;98784.50;;;4.68;100.00
55079;BME280;55187;49.496;6.010;2023-02-03T10:32:09;98784.25;;;4.59;100.00
55079;BME280;55187;49.496;6.010;2023-02-03T10:34:36;98803.22;;;4.52;100.00
55079;BME280;55187;49.496;6.010;2023-02-03T10:37:28;98793.19;;;4.57;100.00
55079;BME280;55187;49.496;6.010;2023-02-03T10:39:56;98793.44;;;4.54;100.00
55079;BME280;55187;49.496;6.010;2023-02-03T10:42:24;98785.59;;;4.76;100.00
55079;BME280;55187;49.496;6.010;2023-02-03T10:45:11;98786.97;;;4.80;100.00
55079;BME280;55187;49.496;6.010;2023-02-03T10:47:47;98773.28;;;4.77;100.00
55079;BME280;55187;49.496;6.010;2023-02-03T10:50:21;98777.66;;;4.88;100.00
55079;BME280;55187;49.496;6.010;2023-02-03T10:52:48;98755.63;;;4.90;100.00
55079;BME280;55187;49.496;6.010;2023-02-03T10:57:51;98752.66;;;4.95;100.00
55079;BME280;55187;49.496;6.010;2023-02-03T11:00:32;98755.88;;;4.87;100.00
55079;BME280;55187;49.496;6.010;2023-02-03T11:05:20;98735.19;;;5.05;100.00
55079;BME280;55187;49.496;6.010;2023-02-03T11:07:47;98733.28;;;5.07;100.00
55079;BME280;55187;49.496;6.010;2023-02-03T11:10:35;98726.13;;;5.09;100.00
55079;BME280;55187;49.496;6.010;2023-02-03T11:13:22;98719.66;;;5.24;100.00
55079;BME280;55187;49.496;6.010;2023-02-03T11:16:00;98718.19;;;4.99;100.00
55079;BME280;55187;49.496;6.010;2023-02-03T11:21:24;98720.84;;;5.53;100.00
55079;BME280;55187;49.496;6.010;2023-02-03T11:24:10;98722.81;;;5.60;100.00
55079;BME280;55187;49.496;6.010;2023-02-03T11:26:42;98714.88;;;5.72;100.00
55079;BME280;55187;49.496;6.010;2023-02-03T11:29:39;98717.06;;;5.66;100.00
55079;BME280;55187;49.496;6.010;2023-02-03T11:32:26;98714.94;;;5.39;100.00
55079;BME280;55187;49.496;6.010;2023-02-03T11:35:00;98719.41;;;5.28;100.00
55079;BME280;55187;49.496;6.010;2023-02-03T11:37:45;98712.97;;;5.20;100.00
55079;BME280;55187;49.496;6.010;2023-02-03T11:53:17;98709.78;;;5.05;100.00
55079;BME280;55187;49.496;6.010;2023-02-03T12:07:59;98697.47;;;5.17;100.00
55079;BME280;55187;49.496;6.010;2023-02-03T12:10:50;98693.91;;;5.18;100.00
55079;BME280;55187;49.496;6.010;2023-02-03T12:13:42;98707.03;;;5.18;100.00
55079;BME280;55187;49.496;6.010;2023-02-03T12:21:36;98707.97;;;5.17;100.00
55079;BME280;55187;49.496;6.010;2023-02-03T12:27:24;98713.31;;;4.95;100.00
55079;BME280;55187;49.496;6.010;2023-02-03T12:30:02;98719.13;;;4.98;100.00
55079;BME280;55187;49.496;6.010;2023-02-03T12:32:41;98720.56;;;4.91;100.00
55079;BME280;55187;49.496;6.010;2023-02-03T12:35:29;98714.50;;;4.91;100.00
55079;BME280;55187;49.496;6.010;2023-02-03T12:38:06;98724.28;;;4.89;100.00
55079;BME280;55187;49.496;6.010;2023-02-03T12:40:43;98726.31;;;4.85;100.00
55079;BME280;55187;49.496;6.010;2023-02-03T12:43:27;98721.19;;;4.83;100.00
55079;BME280;55187;49.496;6.010;2023-02-03T12:46:04;98726.19;;;4.87;100.00
55079;BME280;55187;49.496;6.010;2023-02-03T12:49:04;98726.06;;;4.88;100.00
55079;BME280;55187;49.496;6.010;2023-02-03T12:51:45;98720.81;;;4.88;100.00
55079;BME280;55187;49.496;6.010;2023-02-03T12:56:50;98720.47;;;4.93;100.00
55079;BME280;55187;49.496;6.010;2023-02-03T12:59:22;98731.06;;;4.91;100.00
55079;BME280;55187;49.496;6.010;2023-02-03T13:01:53;98727.72;;;4.89;100.00
55079;BME280;55187;49.496;6.010;2023-02-03T13:04:35;98723.69;;;4.85;100.00
55079;BME280;55187;49.496;6.010;2023-02-03T13:09:58;98721.75;;;4.98;100.00
55079;BME280;55187;49.496;6.010;2023-02-03T13:12:32;98720.81;;;4.99;100.00
55079;BME280;55187;49.496;6.010;2023-02-03T13:20:27;98715.84;;;5.17;100.00
55079;BME280;55187;49.496;6.010;2023-02-03T13:22:57;98706.97;;;5.30;100.00
55079;BME280;55187;49.496;6.010;2023-02-03T13:39:19;98674.91;;;5.26;100.00
55079;BME280;55187;49.496;6.010;2023-02-03T13:44:41;98662.94;;;5.33;100.00
55079;BME280;55187;49.496;6.010;2023-02-03T13:47:20;98664.16;;;5.29;100.00
55079;BME280;55187;49.496;6.010;2023-02-03T13:50:00;98663.19;;;5.30;100.00
55079;BME280;55187;49.496;6.010;2023-02-03T13:52:33;98680.28;;;5.24;100.00
55079;BME280;55187;49.496;6.010;2023-02-03T13:55:01;98683.94;;;5.33;100.00
55079;BME280;55187;49.496;6.010;2023-02-03T13:57:32;98679.22;;;5.48;100.00
55079;BME280;55187;49.496;6.010;2023-02-03T14:00:02;98687.13;;;5.37;100.00
55079;BME280;55187;49.496;6.010;2023-02-03T14:02:42;98692.72;;;5.43;100.00
55079;BME280;55187;49.496;6.010;2023-02-03T14:05:45;98681.78;;;5.38;100.00
55079;BME280;55187;49.496;6.010;2023-02-03T14:16:47;98681.94;;;5.46;100.00
55079;BME280;55187;49.496;6.010;2023-02-03T14:24:22;98687.06;;;5.27;100.00
55079;BME280;55187;49.496;6.010;2023-02-03T14:26:51;98687.69;;;5.40;100.00
55079;BME280;55187;49.496;6.010;2023-02-03T14:29:29;98688.41;;;5.42;100.00
55079;BME280;55187;49.496;6.010;2023-02-03T14:32:08;98689.28;;;5.43;100.00
55079;BME280;55187;49.496;6.010;2023-02-03T14:34:45;98698.53;;;5.47;100.00
55079;BME280;55187;49.496;6.010;2023-02-03T14:37:23;98691.75;;;5.44;100.00
55079;BME280;55187;49.496;6.010;2023-02-03T14:43:01;98680.34;;;5.34;100.00
55079;BME280;55187;49.496;6.010;2023-02-03T14:48:30;98684.13;;;5.41;100.00
55079;BME280;55187;49.496;6.010;2023-02-03T14:51:56;98682.53;;;5.29;100.00
55079;BME280;55187;49.496;6.010;2023-02-03T15:02:19;98669.31;;;5.19;100.00
55079;BME280;55187;49.496;6.010;2023-02-03T15:04:46;98682.66;;;5.28;100.00
55079;BME280;55187;49.496;6.010;2023-02-03T15:10:13;98676.06;;;5.33;100.00
55079;BME280;55187;49.496;6.010;2023-02-03T15:12:48;98667.09;;;5.36;100.00
55079;BME280;55187;49.496;6.010;2023-02-03T15:15:29;98671.66;;;5.34;100.00
55079;BME280;55187;49.496;6.010;2023-02-03T15:17:59;98672.34;;;5.36;100.00
55079;BME280;55187;49.496;6.010;2023-02-03T15:20:38;98662.53;;;5.38;100.00
55079;BME280;55187;49.496;6.010;2023-02-03T15:23:23;98675.34;;;5.31;100.00
55079;BME280;55187;49.496;6.010;2023-02-03T15:25:58;98685.84;;;5.31;100.00
55079;BME280;55187;49.496;6.010;2023-02-03T15:28:27;98680.03;;;5.28;100.00
55079;BME280;55187;49.496;6.010;2023-02-03T15:30:57;98688.72;;;5.28;100.00
55079;BME280;55187;49.496;6.010;2023-02-03T15:33:28;98682.38;;;5.31;100.00
55079;BME280;55187;49.496;6.010;2023-02-03T15:36:01;98689.44;;;5.30;100.00
55079;BME280;55187;49.496;6.010;2023-02-03T15:38:37;98686.22;;;5.26;100.00
55079;BME280;55187;49.496;6.010;2023-02-03T15:41:11;98688.50;;;5.20;100.00